sensor_id;sensor_type;location;lat;lon;timestamp;P1;durP1;ratioP1;P2;durP2;ratioP2
61531;SDS011;47397;48.194;11.632;2022-10-04T00:00:59;12.18;;;7.97;;
61531;SDS011;47397;48.194;11.632;2022-10-04T00:02:06;11.48;;;7.75;;
61531;SDS011;47397;48.194;11.632;2022-10-04T00:03:21;9.60;;;6.57;;
61531;SDS011;47397;48.194;11.632;2022-10-04T00:04:26;11.35;;;7.05;;
61531;SDS011;47397;48.194;11.632;2022-10-04T00:05:29;10.70;;;6.75;;
61531;SDS011;47397;48.194;11.632;2022-10-04T00:06:30;10.75;;;6.63;;
61531;SDS011;47397;48.194;11.632;2022-10-04T00:07:33;9.05;;;6.65;;
61531;SDS011;47397;48.194;11.632;2022-10-04T00:08:39;12.05;;;7.50;;
61531;SDS011;47397;48.194;11.632;2022-10-04T00:09:45;10.90;;;6.80;;
61531;SDS011;47397;48.194;11.632;2022-10-04T00:10:48;10.85;;;6.85;;
61531;SDS011;47397;48.194;11.632;2022-10-04T00:12:00;9.52;;;6.60;;
61531;SDS011;47397;48.194;11.632;2022-10-04T00:13:04;10.68;;;6.90;;
61531;SDS011;47397;48.194;11.632;2022-10-04T00:14:14;9.63;;;7.38;;
61531;SDS011;47397;48.194;11.632;2022-10-04T00:15:19;10.93;;;7.30;;
61531;SDS011;47397;48.194;11.632;2022-10-04T00:16:22;11.77;;;7.30;;
61531;SDS011;47397;48.194;11.632;2022-10-04T00:17:28;10.32;;;7.60;;
61531;SDS011;47397;48.194;11.632;2022-10-04T00:18:30;12.45;;;7.80;;
61531;SDS011;47397;48.194;11.632;2022-10-04T00:19:38;11.63;;;7.60;;
61531;SDS011;47397;48.194;11.632;2022-10-04T00:20:54;10.20;;;7.15;;
61531;SDS011;47397;48.194;11.632;2022-10-04T00:22:10;9.80;;;6.85;;
61531;SDS011;47397;48.194;11.632;2022-10-04T00:23:27;12.52;;;6.93;;
61531;SDS011;47397;48.194;11.632;2022-10-04T00:29:30;9.57;;;6.75;;
61531;SDS011;47397;48.194;11.632;2022-10-04T00:30:34;9.57;;;6.90;;
61531;SDS011;47397;48.194;11.632;2022-10-04T00:31:36;9.10;;;6.20;;
61531;SDS011;47397;48.194;11.632;2022-10-04T00:34:43;8.52;;;5.90;;
61531;SDS011;47397;48.194;11.632;2022-10-04T00:35:46;8.23;;;5.88;;
61531;SDS011;47397;48.194;11.632;2022-10-04T00:36:51;10.20;;;5.78;;
61531;SDS011;47397;48.194;11.632;2022-10-04T00:37:55;9.75;;;6.00;;
61531;SDS011;47397;48.194;11.632;2022-10-04T00:39:10;9.50;;;6.07;;
61531;SDS011;47397;48.194;11.632;2022-10-04T00:40:27;9.45;;;6.00;;
61531;SDS011;47397;48.194;11.632;2022-10-04T00:41:33;9.00;;;6.25;;
61531;SDS011;47397;48.194;11.632;2022-10-04T00:42:42;9.65;;;7.05;;
61531;SDS011;47397;48.194;11.632;2022-10-04T00:43:45;11.48;;;7.82;;
61531;SDS011;47397;48.194;11.632;2022-10-04T00:44:49;15.20;;;8.85;;
61531;SDS011;47397;48.194;11.632;2022-10-04T00:45:54;14.35;;;8.77;;
61531;SDS011;47397;48.194;11.632;2022-10-04T00:47:00;14.40;;;9.00;;
61531;SDS011;47397;48.194;11.632;2022-10-04T00:49:37;12.93;;;7.90;;
61531;SDS011;47397;48.194;11.632;2022-10-04T00:50:40;12.68;;;8.80;;
61531;SDS011;47397;48.194;11.632;2022-10-04T00:51:43;13.32;;;8.95;;
61531;SDS011;47397;48.194;11.632;2022-10-04T00:52:49;13.60;;;8.82;;
61531;SDS011;47397;48.194;11.632;2022-10-04T00:53:54;14.88;;;9.80;;
61531;SDS011;47397;48.194;11.632;2022-10-04T00:55:03;15.70;;;9.75;;
61531;SDS011;47397;48.194;11.632;2022-10-04T00:56:09;16.85;;;8.90;;
61531;SDS011;47397;48.194;11.632;2022-10-04T00:57:14;13.20;;;9.15;;
61531;SDS011;47397;48.194;11.632;2022-10-04T00:58:18;14.55;;;9.77;;
61531;SDS011;47397;48.194;11.632;2022-10-04T00:59:32;12.55;;;8.63;;
61531;SDS011;47397;48.194;11.632;2022-10-04T01:00:36;14.48;;;9.10;;
61531;SDS011;47397;48.194;11.632;2022-10-04T01:01:38;13.73;;;8.80;;
61531;SDS011;47397;48.194;11.632;2022-10-04T01:02:44;12.93;;;8.98;;
61531;SDS011;47397;48.194;11.632;2022-10-04T01:03:47;12.75;;;8.88;;
61531;SDS011;47397;48.194;11.632;2022-10-04T01:04:50;13.55;;;8.75;;
61531;SDS011;47397;48.194;11.632;2022-10-04T01:05:53;12.18;;;8.50;;
61531;SDS011;47397;48.194;11.632;2022-10-04T01:06:58;12.98;;;8.70;;
61531;SDS011;47397;48.194;11.632;2022-10-04T01:08:02;12.13;;;8.75;;
61531;SDS011;47397;48.194;11.632;2022-10-04T01:09:07;8.60;;;7.38;;
61531;SDS011;47397;48.194;11.632;2022-10-04T01:10:12;11.98;;;8.45;;
61531;SDS011;47397;48.194;11.632;2022-10-04T01:11:19;12.30;;;7.93;;
61531;SDS011;47397;48.194;11.632;2022-10-04T01:12:31;10.98;;;7.40;;
61531;SDS011;47397;48.194;11.632;2022-10-04T01:13:39;10.63;;;7.32;;
61531;SDS011;47397;48.194;11.632;2022-10-04T01:14:47;10.38;;;7.80;;
61531;SDS011;47397;48.194;11.632;2022-10-04T01:15:58;10.20;;;7.28;;
61531;SDS011;47397;48.194;11.632;2022-10-04T01:17:02;11.30;;;7.55;;
61531;SDS011;47397;48.194;11.632;2022-10-04T01:18:11;10.32;;;7.10;;
61531;SDS011;47397;48.194;11.632;2022-10-04T01:20:29;9.60;;;7.13;;
61531;SDS011;47397;48.194;11.632;2022-10-04T01:21:34;10.68;;;7.22;;
61531;SDS011;47397;48.194;11.632;2022-10-04T01:22:40;9.73;;;7.25;;
61531;SDS011;47397;48.194;11.632;2022-10-04T01:23:43;10.25;;;7.13;;
61531;SDS011;47397;48.194;11.632;2022-10-04T01:24:45;10.07;;;7.18;;
61531;SDS011;47397;48.194;11.632;2022-10-04T01:25:46;9.32;;;6.88;;
61531;SDS011;47397;48.194;11.632;2022-10-04T01:26:48;11.95;;;7.57;;
61531;SDS011;47397;48.194;11.632;2022-10-04T01:27:49;9.60;;;6.93;;
61531;SDS011;47397;48.194;11.632;2022-10-04T01:28:49;10.48;;;7.05;;
61531;SDS011;47397;48.194;11.632;2022-10-04T01:29:50;10.02;;;7.38;;
61531;SDS011;47397;48.194;11.632;2022-10-04T01:30:50;11.38;;;6.65;;
61531;SDS011;47397;48.194;11.632;2022-10-04T01:31:51;10.75;;;7.28;;
61531;SDS011;47397;48.194;11.632;2022-10-04T01:32:53;10.20;;;7.07;;
61531;SDS011;47397;48.194;11.632;2022-10-04T01:33:54;11.75;;;6.97;;
61531;SDS011;47397;48.194;11.632;2022-10-04T01:34:55;9.20;;;7.10;;
61531;SDS011;47397;48.194;11.632;2022-10-04T01:35:56;9.30;;;7.15;;
61531;SDS011;47397;48.194;11.632;2022-10-04T01:36:57;8.25;;;6.30;;
61531;SDS011;47397;48.194;11.632;2022-10-04T01:38:00;8.73;;;6.47;;
61531;SDS011;47397;48.194;11.632;2022-10-04T01:39:02;8.98;;;6.63;;
61531;SDS011;47397;48.194;11.632;2022-10-04T01:40:04;11.20;;;6.38;;
61531;SDS011;47397;48.194;11.632;2022-10-04T01:41:06;9.65;;;6.53;;
61531;SDS011;47397;48.194;11.632;2022-10-04T01:42:10;9.38;;;6.68;;
61531;SDS011;47397;48.194;11.632;2022-10-04T01:43:16;10.98;;;7.28;;
61531;SDS011;47397;48.194;11.632;2022-10-04T01:44:23;7.95;;;6.05;;
61531;SDS011;47397;48.194;11.632;2022-10-04T01:45:31;10.90;;;6.50;;
61531;SDS011;47397;48.194;11.632;2022-10-04T01:46:37;8.60;;;6.20;;
61531;SDS011;47397;48.194;11.632;2022-10-04T01:47:40;9.35;;;6.20;;
61531;SDS011;47397;48.194;11.632;2022-10-04T01:48:42;8.52;;;6.43;;
61531;SDS011;47397;48.194;11.632;2022-10-04T01:49:44;7.32;;;6.10;;
61531;SDS011;47397;48.194;11.632;2022-10-04T01:50:49;9.75;;;6.55;;
61531;SDS011;47397;48.194;11.632;2022-10-04T01:51:56;8.52;;;6.30;;
61531;SDS011;47397;48.194;11.632;2022-10-04T01:53:05;7.85;;;5.82;;
61531;SDS011;47397;48.194;11.632;2022-10-04T01:54:12;7.97;;;6.32;;
61531;SDS011;47397;48.194;11.632;2022-10-04T01:55:16;11.73;;;6.47;;
61531;SDS011;47397;48.194;11.632;2022-10-04T01:56:20;9.90;;;6.18;;
61531;SDS011;47397;48.194;11.632;2022-10-04T01:57:25;10.57;;;5.93;;
61531;SDS011;47397;48.194;11.632;2022-10-04T01:58:31;8.52;;;5.97;;
61531;SDS011;47397;48.194;11.632;2022-10-04T01:59:40;8.57;;;6.10;;
61531;SDS011;47397;48.194;11.632;2022-10-04T02:00:46;7.53;;;5.50;;
61531;SDS011;47397;48.194;11.632;2022-10-04T02:01:51;7.50;;;5.82;;
61531;SDS011;47397;48.194;11.632;2022-10-04T02:02:55;8.13;;;5.65;;
61531;SDS011;47397;48.194;11.632;2022-10-04T02:04:00;9.10;;;5.88;;
61531;SDS011;47397;48.194;11.632;2022-10-04T02:05:04;7.60;;;5.57;;
61531;SDS011;47397;48.194;11.632;2022-10-04T02:06:07;9.85;;;5.88;;
61531;SDS011;47397;48.194;11.632;2022-10-04T02:07:10;8.60;;;6.32;;
61531;SDS011;47397;48.194;11.632;2022-10-04T02:08:14;8.57;;;6.07;;
61531;SDS011;47397;48.194;11.632;2022-10-04T02:09:17;6.85;;;5.18;;
61531;SDS011;47397;48.194;11.632;2022-10-04T02:10:20;7.40;;;5.18;;
61531;SDS011;47397;48.194;11.632;2022-10-04T02:11:22;6.88;;;5.32;;
61531;SDS011;47397;48.194;11.632;2022-10-04T02:12:26;7.30;;;5.75;;
61531;SDS011;47397;48.194;11.632;2022-10-04T02:13:34;7.28;;;5.50;;
61531;SDS011;47397;48.194;11.632;2022-10-04T02:14:38;7.85;;;5.60;;
61531;SDS011;47397;48.194;11.632;2022-10-04T02:15:45;8.35;;;5.65;;
61531;SDS011;47397;48.194;11.632;2022-10-04T02:16:46;6.75;;;5.63;;
61531;SDS011;47397;48.194;11.632;2022-10-04T02:17:48;8.43;;;5.30;;
61531;SDS011;47397;48.194;11.632;2022-10-04T02:18:49;7.72;;;5.63;;
61531;SDS011;47397;48.194;11.632;2022-10-04T02:19:51;8.45;;;5.35;;
61531;SDS011;47397;48.194;11.632;2022-10-04T02:20:52;7.03;;;4.82;;
61531;SDS011;47397;48.194;11.632;2022-10-04T02:21:53;7.22;;;5.25;;
61531;SDS011;47397;48.194;11.632;2022-10-04T02:22:54;6.85;;;5.20;;
61531;SDS011;47397;48.194;11.632;2022-10-04T02:23:58;9.48;;;5.70;;
61531;SDS011;47397;48.194;11.632;2022-10-04T02:24:59;7.50;;;5.43;;
61531;SDS011;47397;48.194;11.632;2022-10-04T02:26:02;7.97;;;5.63;;
61531;SDS011;47397;48.194;11.632;2022-10-04T02:27:03;7.97;;;5.35;;
61531;SDS011;47397;48.194;11.632;2022-10-04T02:28:04;8.18;;;4.78;;
61531;SDS011;47397;48.194;11.632;2022-10-04T02:29:08;6.97;;;5.50;;
61531;SDS011;47397;48.194;11.632;2022-10-04T02:30:09;7.43;;;5.50;;
61531;SDS011;47397;48.194;11.632;2022-10-04T02:31:11;7.72;;;5.10;;
61531;SDS011;47397;48.194;11.632;2022-10-04T02:32:12;7.65;;;5.68;;
61531;SDS011;47397;48.194;11.632;2022-10-04T02:33:13;6.65;;;5.50;;
61531;SDS011;47397;48.194;11.632;2022-10-04T02:34:15;6.63;;;5.28;;
61531;SDS011;47397;48.194;11.632;2022-10-04T02:35:17;6.85;;;5.10;;
61531;SDS011;47397;48.194;11.632;2022-10-04T02:36:22;7.00;;;5.55;;
61531;SDS011;47397;48.194;11.632;2022-10-04T02:37:25;6.60;;;4.90;;
61531;SDS011;47397;48.194;11.632;2022-10-04T02:38:28;6.35;;;5.10;;
61531;SDS011;47397;48.194;11.632;2022-10-04T02:39:35;7.30;;;5.00;;
61531;SDS011;47397;48.194;11.632;2022-10-04T02:40:39;11.48;;;5.18;;
61531;SDS011;47397;48.194;11.632;2022-10-04T02:41:47;9.35;;;5.80;;
61531;SDS011;47397;48.194;11.632;2022-10-04T02:42:52;8.15;;;5.15;;
61531;SDS011;47397;48.194;11.632;2022-10-04T02:43:56;7.47;;;5.47;;
61531;SDS011;47397;48.194;11.632;2022-10-04T02:45:03;7.72;;;5.30;;
61531;SDS011;47397;48.194;11.632;2022-10-04T02:46:08;7.07;;;5.10;;
61531;SDS011;47397;48.194;11.632;2022-10-04T02:47:15;8.02;;;5.25;;
61531;SDS011;47397;48.194;11.632;2022-10-04T02:48:26;6.65;;;4.88;;
61531;SDS011;47397;48.194;11.632;2022-10-04T02:49:32;6.85;;;5.80;;
61531;SDS011;47397;48.194;11.632;2022-10-04T02:50:37;6.47;;;5.03;;
61531;SDS011;47397;48.194;11.632;2022-10-04T02:51:45;8.60;;;5.40;;
61531;SDS011;47397;48.194;11.632;2022-10-04T02:52:50;9.02;;;5.20;;
61531;SDS011;47397;48.194;11.632;2022-10-04T02:53:56;6.95;;;5.13;;
61531;SDS011;47397;48.194;11.632;2022-10-04T02:55:03;7.32;;;5.03;;
61531;SDS011;47397;48.194;11.632;2022-10-04T02:56:07;8.95;;;4.95;;
61531;SDS011;47397;48.194;11.632;2022-10-04T02:57:12;6.30;;;5.13;;
61531;SDS011;47397;48.194;11.632;2022-10-04T02:58:15;7.47;;;4.72;;
61531;SDS011;47397;48.194;11.632;2022-10-04T02:59:18;8.85;;;5.70;;
61531;SDS011;47397;48.194;11.632;2022-10-04T03:00:21;7.57;;;5.68;;
61531;SDS011;47397;48.194;11.632;2022-10-04T03:01:24;6.60;;;4.82;;
61531;SDS011;47397;48.194;11.632;2022-10-04T03:02:26;6.85;;;5.22;;
61531;SDS011;47397;48.194;11.632;2022-10-04T03:03:28;7.63;;;5.53;;
61531;SDS011;47397;48.194;11.632;2022-10-04T03:04:30;6.78;;;5.05;;
61531;SDS011;47397;48.194;11.632;2022-10-04T03:05:37;7.70;;;5.22;;
61531;SDS011;47397;48.194;11.632;2022-10-04T03:06:39;7.10;;;5.28;;
61531;SDS011;47397;48.194;11.632;2022-10-04T03:07:41;8.32;;;5.18;;
61531;SDS011;47397;48.194;11.632;2022-10-04T03:08:43;7.68;;;5.07;;
61531;SDS011;47397;48.194;11.632;2022-10-04T03:09:46;7.95;;;5.72;;
61531;SDS011;47397;48.194;11.632;2022-10-04T03:10:48;6.47;;;4.75;;
61531;SDS011;47397;48.194;11.632;2022-10-04T03:11:49;8.40;;;5.20;;
61531;SDS011;47397;48.194;11.632;2022-10-04T03:12:50;7.45;;;5.45;;
61531;SDS011;47397;48.194;11.632;2022-10-04T03:13:52;6.15;;;5.10;;
61531;SDS011;47397;48.194;11.632;2022-10-04T03:14:55;6.32;;;5.05;;
61531;SDS011;47397;48.194;11.632;2022-10-04T03:15:55;7.88;;;5.28;;
61531;SDS011;47397;48.194;11.632;2022-10-04T03:16:56;7.15;;;5.43;;
61531;SDS011;47397;48.194;11.632;2022-10-04T03:17:59;6.95;;;5.55;;
61531;SDS011;47397;48.194;11.632;2022-10-04T03:19:01;7.25;;;5.50;;
61531;SDS011;47397;48.194;11.632;2022-10-04T03:20:02;7.07;;;5.15;;
61531;SDS011;47397;48.194;11.632;2022-10-04T03:21:04;7.18;;;5.30;;
61531;SDS011;47397;48.194;11.632;2022-10-04T03:22:07;5.82;;;4.55;;
61531;SDS011;47397;48.194;11.632;2022-10-04T03:23:09;9.55;;;5.57;;
61531;SDS011;47397;48.194;11.632;2022-10-04T03:24:13;8.25;;;5.43;;
61531;SDS011;47397;48.194;11.632;2022-10-04T03:25:17;7.25;;;4.88;;
61531;SDS011;47397;48.194;11.632;2022-10-04T03:26:25;7.85;;;5.38;;
61531;SDS011;47397;48.194;11.632;2022-10-04T03:27:29;7.00;;;4.85;;
61531;SDS011;47397;48.194;11.632;2022-10-04T03:28:32;6.10;;;5.03;;
61531;SDS011;47397;48.194;11.632;2022-10-04T03:29:38;6.90;;;5.00;;
61531;SDS011;47397;48.194;11.632;2022-10-04T03:30:42;6.22;;;5.22;;
61531;SDS011;47397;48.194;11.632;2022-10-04T03:31:44;8.05;;;5.00;;
61531;SDS011;47397;48.194;11.632;2022-10-04T03:32:47;7.22;;;4.88;;
61531;SDS011;47397;48.194;11.632;2022-10-04T03:33:49;7.65;;;5.32;;
61531;SDS011;47397;48.194;11.632;2022-10-04T03:34:51;7.78;;;5.20;;
61531;SDS011;47397;48.194;11.632;2022-10-04T03:35:55;6.60;;;5.22;;
61531;SDS011;47397;48.194;11.632;2022-10-04T03:36:57;6.70;;;4.70;;
61531;SDS011;47397;48.194;11.632;2022-10-04T03:37:59;6.82;;;5.47;;
61531;SDS011;47397;48.194;11.632;2022-10-04T03:39:05;6.55;;;4.75;;
61531;SDS011;47397;48.194;11.632;2022-10-04T03:40:08;7.22;;;5.15;;
61531;SDS011;47397;48.194;11.632;2022-10-04T03:41:10;7.13;;;4.43;;
61531;SDS011;47397;48.194;11.632;2022-10-04T03:42:14;7.32;;;5.43;;
61531;SDS011;47397;48.194;11.632;2022-10-04T03:43:18;7.93;;;4.97;;
61531;SDS011;47397;48.194;11.632;2022-10-04T03:44:21;9.27;;;5.30;;
61531;SDS011;47397;48.194;11.632;2022-10-04T03:45:22;8.63;;;5.68;;
61531;SDS011;47397;48.194;11.632;2022-10-04T03:46:23;6.63;;;5.22;;
61531;SDS011;47397;48.194;11.632;2022-10-04T03:47:25;7.30;;;5.15;;
61531;SDS011;47397;48.194;11.632;2022-10-04T03:48:30;6.20;;;4.57;;
61531;SDS011;47397;48.194;11.632;2022-10-04T03:49:34;5.78;;;4.90;;
61531;SDS011;47397;48.194;11.632;2022-10-04T03:50:37;6.40;;;5.20;;
61531;SDS011;47397;48.194;11.632;2022-10-04T03:51:43;6.68;;;4.97;;
61531;SDS011;47397;48.194;11.632;2022-10-04T03:52:48;8.95;;;5.03;;
61531;SDS011;47397;48.194;11.632;2022-10-04T03:53:53;6.45;;;4.47;;
61531;SDS011;47397;48.194;11.632;2022-10-04T03:54:56;6.72;;;4.78;;
61531;SDS011;47397;48.194;11.632;2022-10-04T03:56:00;6.72;;;4.90;;
61531;SDS011;47397;48.194;11.632;2022-10-04T03:57:07;6.53;;;5.07;;
61531;SDS011;47397;48.194;11.632;2022-10-04T03:58:09;6.30;;;4.80;;
61531;SDS011;47397;48.194;11.632;2022-10-04T03:59:13;6.03;;;4.95;;
61531;SDS011;47397;48.194;11.632;2022-10-04T04:00:16;7.30;;;4.85;;
61531;SDS011;47397;48.194;11.632;2022-10-04T04:01:25;7.38;;;4.88;;
61531;SDS011;47397;48.194;11.632;2022-10-04T04:02:35;6.55;;;4.40;;
61531;SDS011;47397;48.194;11.632;2022-10-04T04:03:44;5.60;;;4.88;;
61531;SDS011;47397;48.194;11.632;2022-10-04T04:04:59;6.10;;;4.97;;
61531;SDS011;47397;48.194;11.632;2022-10-04T04:06:05;5.72;;;4.43;;
61531;SDS011;47397;48.194;11.632;2022-10-04T04:07:15;6.65;;;5.05;;
61531;SDS011;47397;48.194;11.632;2022-10-04T04:08:23;5.53;;;4.50;;
61531;SDS011;47397;48.194;11.632;2022-10-04T04:09:31;7.35;;;4.22;;
61531;SDS011;47397;48.194;11.632;2022-10-04T04:11:41;5.80;;;4.00;;
61531;SDS011;47397;48.194;11.632;2022-10-04T04:12:43;6.22;;;4.63;;
61531;SDS011;47397;48.194;11.632;2022-10-04T04:13:50;6.68;;;4.47;;
61531;SDS011;47397;48.194;11.632;2022-10-04T04:14:57;5.72;;;4.75;;
61531;SDS011;47397;48.194;11.632;2022-10-04T04:15:59;5.90;;;4.43;;
61531;SDS011;47397;48.194;11.632;2022-10-04T04:17:15;6.55;;;4.32;;
61531;SDS011;47397;48.194;11.632;2022-10-04T04:18:18;6.28;;;4.60;;
61531;SDS011;47397;48.194;11.632;2022-10-04T04:19:21;5.63;;;4.22;;
61531;SDS011;47397;48.194;11.632;2022-10-04T04:20:24;6.30;;;4.40;;
61531;SDS011;47397;48.194;11.632;2022-10-04T04:21:27;5.70;;;4.63;;
61531;SDS011;47397;48.194;11.632;2022-10-04T04:22:29;6.18;;;4.35;;
61531;SDS011;47397;48.194;11.632;2022-10-04T04:23:31;6.50;;;4.78;;
61531;SDS011;47397;48.194;11.632;2022-10-04T04:24:33;5.32;;;4.45;;
61531;SDS011;47397;48.194;11.632;2022-10-04T04:25:36;7.53;;;4.68;;
61531;SDS011;47397;48.194;11.632;2022-10-04T04:26:39;8.10;;;5.10;;
61531;SDS011;47397;48.194;11.632;2022-10-04T04:27:43;5.15;;;4.47;;
61531;SDS011;47397;48.194;11.632;2022-10-04T04:28:46;5.47;;;4.13;;
61531;SDS011;47397;48.194;11.632;2022-10-04T04:29:51;6.47;;;4.53;;
61531;SDS011;47397;48.194;11.632;2022-10-04T04:30:52;5.65;;;4.20;;
61531;SDS011;47397;48.194;11.632;2022-10-04T04:31:58;5.22;;;4.18;;
61531;SDS011;47397;48.194;11.632;2022-10-04T04:33:02;5.70;;;4.38;;
61531;SDS011;47397;48.194;11.632;2022-10-04T04:34:15;5.78;;;4.75;;
61531;SDS011;47397;48.194;11.632;2022-10-04T04:35:21;4.87;;;4.03;;
61531;SDS011;47397;48.194;11.632;2022-10-04T04:36:24;5.07;;;4.35;;
61531;SDS011;47397;48.194;11.632;2022-10-04T04:37:26;5.65;;;4.45;;
61531;SDS011;47397;48.194;11.632;2022-10-04T04:38:26;5.72;;;3.95;;
61531;SDS011;47397;48.194;11.632;2022-10-04T04:39:28;6.80;;;5.18;;
61531;SDS011;47397;48.194;11.632;2022-10-04T04:40:30;5.50;;;4.38;;
61531;SDS011;47397;48.194;11.632;2022-10-04T04:41:31;5.70;;;4.50;;
61531;SDS011;47397;48.194;11.632;2022-10-04T04:42:33;6.32;;;4.88;;
61531;SDS011;47397;48.194;11.632;2022-10-04T04:43:34;6.80;;;4.45;;
61531;SDS011;47397;48.194;11.632;2022-10-04T04:44:34;6.80;;;4.57;;
61531;SDS011;47397;48.194;11.632;2022-10-04T04:45:38;5.85;;;4.38;;
61531;SDS011;47397;48.194;11.632;2022-10-04T04:46:39;5.95;;;4.22;;
61531;SDS011;47397;48.194;11.632;2022-10-04T04:47:41;6.85;;;4.47;;
61531;SDS011;47397;48.194;11.632;2022-10-04T04:48:43;6.45;;;4.60;;
61531;SDS011;47397;48.194;11.632;2022-10-04T04:49:45;9.10;;;4.45;;
61531;SDS011;47397;48.194;11.632;2022-10-04T04:50:51;6.78;;;4.53;;
61531;SDS011;47397;48.194;11.632;2022-10-04T04:51:54;5.50;;;4.32;;
61531;SDS011;47397;48.194;11.632;2022-10-04T04:53:08;5.40;;;4.10;;
61531;SDS011;47397;48.194;11.632;2022-10-04T04:54:15;6.30;;;4.63;;
61531;SDS011;47397;48.194;11.632;2022-10-04T04:55:17;6.35;;;4.22;;
61531;SDS011;47397;48.194;11.632;2022-10-04T04:56:21;6.88;;;4.40;;
61531;SDS011;47397;48.194;11.632;2022-10-04T04:57:24;6.60;;;4.65;;
61531;SDS011;47397;48.194;11.632;2022-10-04T04:58:26;6.32;;;4.50;;
61531;SDS011;47397;48.194;11.632;2022-10-04T04:59:29;6.28;;;3.85;;
61531;SDS011;47397;48.194;11.632;2022-10-04T05:00:30;5.75;;;4.13;;
61531;SDS011;47397;48.194;11.632;2022-10-04T05:01:34;4.78;;;3.85;;
61531;SDS011;47397;48.194;11.632;2022-10-04T05:02:40;6.00;;;4.65;;
61531;SDS011;47397;48.194;11.632;2022-10-04T05:04:03;6.03;;;3.88;;
61531;SDS011;47397;48.194;11.632;2022-10-04T05:05:17;7.40;;;4.22;;
61531;SDS011;47397;48.194;11.632;2022-10-04T05:06:23;5.40;;;4.13;;
61531;SDS011;47397;48.194;11.632;2022-10-04T05:07:25;5.47;;;4.10;;
61531;SDS011;47397;48.194;11.632;2022-10-04T05:08:27;5.20;;;3.85;;
61531;SDS011;47397;48.194;11.632;2022-10-04T05:09:29;5.43;;;4.20;;
61531;SDS011;47397;48.194;11.632;2022-10-04T05:10:31;5.88;;;3.80;;
61531;SDS011;47397;48.194;11.632;2022-10-04T05:11:33;5.75;;;4.25;;
61531;SDS011;47397;48.194;11.632;2022-10-04T05:12:37;5.80;;;3.95;;
61531;SDS011;47397;48.194;11.632;2022-10-04T05:13:38;5.32;;;4.00;;
61531;SDS011;47397;48.194;11.632;2022-10-04T05:14:44;5.68;;;3.97;;
61531;SDS011;47397;48.194;11.632;2022-10-04T05:15:46;5.05;;;3.65;;
61531;SDS011;47397;48.194;11.632;2022-10-04T05:16:53;5.38;;;4.13;;
61531;SDS011;47397;48.194;11.632;2022-10-04T05:17:57;5.68;;;3.70;;
61531;SDS011;47397;48.194;11.632;2022-10-04T05:18:58;5.40;;;4.10;;
61531;SDS011;47397;48.194;11.632;2022-10-04T05:20:00;6.45;;;4.40;;
61531;SDS011;47397;48.194;11.632;2022-10-04T05:21:03;7.07;;;4.45;;
61531;SDS011;47397;48.194;11.632;2022-10-04T05:22:08;6.00;;;4.45;;
61531;SDS011;47397;48.194;11.632;2022-10-04T05:23:10;5.55;;;4.20;;
61531;SDS011;47397;48.194;11.632;2022-10-04T05:24:12;6.35;;;4.40;;
61531;SDS011;47397;48.194;11.632;2022-10-04T05:25:21;6.78;;;4.07;;
61531;SDS011;47397;48.194;11.632;2022-10-04T05:26:25;5.88;;;4.50;;
61531;SDS011;47397;48.194;11.632;2022-10-04T05:27:29;6.97;;;3.65;;
61531;SDS011;47397;48.194;11.632;2022-10-04T05:28:35;6.07;;;4.57;;
61531;SDS011;47397;48.194;11.632;2022-10-04T05:29:36;5.28;;;3.83;;
61531;SDS011;47397;48.194;11.632;2022-10-04T05:30:45;5.70;;;4.18;;
61531;SDS011;47397;48.194;11.632;2022-10-04T05:31:56;6.20;;;3.92;;
61531;SDS011;47397;48.194;11.632;2022-10-04T05:33:08;6.85;;;4.15;;
61531;SDS011;47397;48.194;11.632;2022-10-04T05:34:16;5.43;;;4.38;;
61531;SDS011;47397;48.194;11.632;2022-10-04T05:35:18;5.60;;;4.28;;
61531;SDS011;47397;48.194;11.632;2022-10-04T05:36:27;5.22;;;3.75;;
61531;SDS011;47397;48.194;11.632;2022-10-04T05:37:41;6.00;;;4.13;;
61531;SDS011;47397;48.194;11.632;2022-10-04T05:38:49;5.80;;;4.20;;
61531;SDS011;47397;48.194;11.632;2022-10-04T05:39:58;5.10;;;3.83;;
61531;SDS011;47397;48.194;11.632;2022-10-04T05:41:05;6.95;;;3.97;;
61531;SDS011;47397;48.194;11.632;2022-10-04T05:42:10;5.22;;;3.63;;
61531;SDS011;47397;48.194;11.632;2022-10-04T05:43:20;5.30;;;4.25;;
61531;SDS011;47397;48.194;11.632;2022-10-04T05:44:23;5.68;;;4.05;;
61531;SDS011;47397;48.194;11.632;2022-10-04T05:45:26;4.90;;;3.95;;
61531;SDS011;47397;48.194;11.632;2022-10-04T05:46:27;5.30;;;4.22;;
61531;SDS011;47397;48.194;11.632;2022-10-04T05:47:30;5.97;;;4.32;;
61531;SDS011;47397;48.194;11.632;2022-10-04T05:48:30;6.03;;;4.30;;
61531;SDS011;47397;48.194;11.632;2022-10-04T05:49:33;6.03;;;4.10;;
61531;SDS011;47397;48.194;11.632;2022-10-04T05:50:40;6.95;;;4.05;;
61531;SDS011;47397;48.194;11.632;2022-10-04T05:51:47;5.93;;;4.22;;
61531;SDS011;47397;48.194;11.632;2022-10-04T05:52:49;5.10;;;4.15;;
61531;SDS011;47397;48.194;11.632;2022-10-04T05:53:51;5.20;;;4.20;;
61531;SDS011;47397;48.194;11.632;2022-10-04T05:55:06;5.47;;;4.30;;
61531;SDS011;47397;48.194;11.632;2022-10-04T05:57:40;6.25;;;3.95;;
61531;SDS011;47397;48.194;11.632;2022-10-04T05:58:51;6.05;;;3.85;;
61531;SDS011;47397;48.194;11.632;2022-10-04T06:00:01;7.13;;;4.75;;
61531;SDS011;47397;48.194;11.632;2022-10-04T06:01:12;6.55;;;4.22;;
61531;SDS011;47397;48.194;11.632;2022-10-04T06:02:25;5.63;;;3.90;;
61531;SDS011;47397;48.194;11.632;2022-10-04T06:03:37;6.68;;;4.20;;
61531;SDS011;47397;48.194;11.632;2022-10-04T06:04:53;5.68;;;4.20;;
61531;SDS011;47397;48.194;11.632;2022-10-04T06:06:00;6.07;;;4.55;;
61531;SDS011;47397;48.194;11.632;2022-10-04T06:07:12;5.40;;;4.30;;
61531;SDS011;47397;48.194;11.632;2022-10-04T06:08:25;4.88;;;4.10;;
61531;SDS011;47397;48.194;11.632;2022-10-04T06:09:40;6.22;;;4.38;;
61531;SDS011;47397;48.194;11.632;2022-10-04T06:10:54;7.18;;;4.55;;
61531;SDS011;47397;48.194;11.632;2022-10-04T06:12:04;6.05;;;4.55;;
61531;SDS011;47397;48.194;11.632;2022-10-04T06:13:13;6.10;;;4.40;;
61531;SDS011;47397;48.194;11.632;2022-10-04T06:14:34;8.18;;;5.00;;
61531;SDS011;47397;48.194;11.632;2022-10-04T06:15:55;5.35;;;4.25;;
61531;SDS011;47397;48.194;11.632;2022-10-04T06:17:18;7.38;;;4.82;;
61531;SDS011;47397;48.194;11.632;2022-10-04T06:18:37;7.22;;;4.32;;
61531;SDS011;47397;48.194;11.632;2022-10-04T06:20:11;6.53;;;4.40;;
61531;SDS011;47397;48.194;11.632;2022-10-04T06:21:23;6.97;;;4.50;;
61531;SDS011;47397;48.194;11.632;2022-10-04T06:22:26;7.65;;;5.05;;
61531;SDS011;47397;48.194;11.632;2022-10-04T06:23:27;6.15;;;5.07;;
61531;SDS011;47397;48.194;11.632;2022-10-04T06:24:30;5.95;;;4.72;;
61531;SDS011;47397;48.194;11.632;2022-10-04T06:25:37;5.72;;;4.80;;
61531;SDS011;47397;48.194;11.632;2022-10-04T06:26:42;6.85;;;4.75;;
61531;SDS011;47397;48.194;11.632;2022-10-04T06:27:48;7.57;;;4.85;;
61531;SDS011;47397;48.194;11.632;2022-10-04T06:28:56;6.75;;;4.50;;
61531;SDS011;47397;48.194;11.632;2022-10-04T06:30:00;7.93;;;4.88;;
61531;SDS011;47397;48.194;11.632;2022-10-04T06:31:11;7.97;;;4.57;;
61531;SDS011;47397;48.194;11.632;2022-10-04T06:34:08;6.20;;;5.00;;
61531;SDS011;47397;48.194;11.632;2022-10-04T06:35:26;6.13;;;4.55;;
61531;SDS011;47397;48.194;11.632;2022-10-04T06:37:02;5.95;;;3.95;;
61531;SDS011;47397;48.194;11.632;2022-10-04T06:40:08;8.30;;;5.00;;
61531;SDS011;47397;48.194;11.632;2022-10-04T06:41:43;9.45;;;4.70;;
61531;SDS011;47397;48.194;11.632;2022-10-04T06:42:53;6.68;;;4.38;;
61531;SDS011;47397;48.194;11.632;2022-10-04T06:44:12;5.97;;;4.38;;